Time;durP1;ratioP1;P1;durP2;ratioP2;P2;SDS_P1;SDS_P2;PMS_P1;PMS_P2;Temp;Humidity;BMP_temperature;BMP_pressure;BME280_temperature;BME280_humidity;BME280_pressure;Samples;Min_cycle;Max_cycle;Signal;HPM_P1;HPM_P2
2021/12/17 13:01:21;;;;;;;7.17;2.27;;;;;;;4.52;81.58;101008.48;1864621;73;21961;-68
2021/12/17 13:03:49;;;;;;;5.58;2.20;;;;;;;4.36;82.61;101001.60;1836628;75;21019;-68
2021/12/17 13:06:22;;;;;;;6.22;2.30;;;;;;;4.24;82.89;101005.07;1835357;75;22115;-68
2021/12/17 13:08:57;;;;;;;7.12;2.35;;;;;;;4.13;82.74;101005.07;1841031;75;21067;-69
2021/12/17 13:11:24;;;;;;;6.37;2.30;;;;;;;4.02;82.42;101016.70;1848294;75;21055;-68
2021/12/17 13:13:58;;;;;;;7.45;2.58;;;;;;;3.95;82.43;101022.73;1837293;75;27660;-69
2021/12/17 13:16:43;;;;;;;6.60;2.40;;;;;;;3.88;82.66;101016.27;1815850;75;21127;-70
2021/12/17 13:24:30;;;;;;;6.35;2.22;;;;;;;3.77;82.77;101049.40;1840302;76;21012;-69
2021/12/17 13:27:00;;;;;;;5.97;2.15;;;;;;;3.78;82.90;101040.81;1797243;76;20945;-69
2021/12/17 13:29:37;;;;;;;7.97;2.40;;;;;;;3.72;82.63;101053.69;1837239;76;21123;-70
2021/12/17 13:32:17;;;;;;;10.48;3.62;;;;;;;3.67;82.82;101048.97;1831300;77;22501;-69
2021/12/17 13:34:55;;;;;;;6.58;2.58;;;;;;;3.64;83.07;101046.38;1832766;77;21071;-69
2021/12/17 13:37:24;;;;;;;;;;;;;;;3.65;83.27;101037.77;1837712;76;21134;-69
2021/12/17 13:40:02;;;;;;;8.68;2.85;;;;;;;3.60;83.22;101034.30;1834556;77;20113;-69
2021/12/17 13:42:33;;;;;;;6.70;1.95;;;;;;;3.53;83.33;101036.45;1833082;76;21776;-69
2021/12/17 13:45:10;;;;;;;4.08;2.02;;;;;;;3.48;83.45;101026.54;1822945;77;21791;-69
2021/12/17 13:47:47;;;;;;;4.90;2.08;;;;;;;3.46;83.50;101041.16;1828833;76;21060;-69
2021/12/17 13:50:30;;;;;;;7.25;2.62;;;;;;;3.43;83.49;101042.01;1828376;77;20993;-69
2021/12/17 13:53:06;;;;;;;6.30;2.92;;;;;;;3.40;83.64;101040.70;1824199;77;21001;-70
2021/12/17 13:55:48;;;;;;;7.22;2.37;;;;;;;3.34;83.64;101053.17;1826642;77;20993;-69
2021/12/17 13:58:19;;;;;;;5.50;2.35;;;;;;;3.30;83.77;101048.83;1833295;77;21074;-69
2021/12/17 14:00:56;;;;;;;7.72;2.75;;;;;;;3.28;83.79;101057.02;1808066;77;21037;-70
2021/12/17 14:03:33;;;;;;;;;;;;;;;3.25;83.90;101057.41;1786257;78;21047;-68
2021/12/17 14:06:08;;;;;;;11.38;2.90;;;;;;;3.20;83.90;101062.58;1765690;78;20343;-68
2021/12/17 14:08:31;;;;;;;9.83;3.30;;;;;;;3.13;84.05;101074.58;1792806;78;21060;-68
2021/12/17 14:10:58;;;;;;;8.65;3.17;;;;;;;3.10;84.14;101081.45;1785394;78;21078;-70
2021/12/17 14:13:27;;;;;;;9.15;2.60;;;;;;;3.08;84.16;101075.41;1797253;78;21123;-70
2021/12/17 14:15:57;;;;;;;8.58;3.77;;;;;;;3.01;84.23;101058.19;1789570;78;21016;-69
2021/12/17 14:18:27;;;;;;;10.88;3.20;;;;;;;2.99;84.43;101068.48;1798865;78;21020;-70
2021/12/17 14:21:04;;;;;;;9.43;3.12;;;;;;;2.99;84.46;101061.17;1794929;78;21110;-70
2021/12/17 14:23:34;;;;;;;11.50;3.98;;;;;;;2.96;84.59;101070.20;1798107;78;21912;-70
2021/12/17 14:26:07;;;;;;;12.10;3.62;;;;;;;2.91;84.51;101068.47;1768629;78;20988;-70
2021/12/17 14:28:40;;;;;;;9.05;4.08;;;;;;;2.88;84.52;101065.84;1799863;78;21562;-70
2021/12/17 14:31:13;;;;;;;10.20;3.83;;;;;;;2.83;84.71;101059.81;1786265;78;21012;-70
2021/12/17 14:33:49;;;;;;;8.90;3.40;;;;;;;2.79;84.66;101052.90;1794937;76;20917;-69
2021/12/17 14:36:38;;;;;;;6.10;2.80;;;;;;;2.71;84.75;101057.14;1804392;78;21790;-69
2021/12/17 14:39:13;;;;;;;9.98;3.20;;;;;;;2.67;85.06;101074.33;1791048;78;20997;-69
2021/12/17 14:41:52;;;;;;;8.25;3.40;;;;;;;2.63;85.17;101075.58;1804927;78;21532;-69
2021/12/17 14:47:01;;;;;;;10.43;3.77;;;;;;;2.55;85.18;101091.41;1804435;78;21028;-69
2021/12/17 15:05:53;;;;;;;16.07;5.50;;;;;;;2.33;85.87;101073.22;1790973;78;21129;-69
2021/12/17 15:08:20;;;;;;;13.22;5.33;;;;;;;2.30;85.89;101082.22;1786269;78;20968;-68
2021/12/17 15:10:47;;;;;;;10.77;5.77;;;;;;;2.29;85.95;101097.23;1774206;78;20975;-68
2021/12/17 15:13:15;;;;;;;10.95;4.65;;;;;;;2.28;85.90;101091.64;1786181;78;20984;-68
2021/12/17 15:15:41;;;;;;;;;;;;;;;2.24;86.15;101093.73;1792013;77;21916;-69
2021/12/17 15:18:15;;;;;;;12.55;4.17;;;;;;;2.27;86.79;101111.84;1786852;78;20202;-69
2021/12/17 15:20:45;;;;;;;12.75;4.20;;;;;;;2.29;86.40;101102.38;1759901;79;21057;-69
2021/12/17 15:23:13;;;;;;;12.15;3.98;;;;;;;2.26;86.32;101094.63;1784594;78;21038;-69
2021/12/17 15:25:40;;;;;;;10.68;3.75;;;;;;;2.23;86.21;101097.18;1766234;78;21075;-70
2021/12/17 15:28:11;;;;;;;11.18;3.85;;;;;;;2.19;86.29;101095.44;1810772;77;21547;-69
2021/12/17 15:30:42;;;;;;;11.93;4.50;;;;;;;2.15;86.46;101091.95;1805677;77;21627;-69
2021/12/17 15:33:12;;;;;;;13.13;3.98;;;;;;;2.14;86.41;101098.39;1810382;77;21012;-69
2021/12/17 15:35:41;;;;;;;9.50;4.12;;;;;;;2.09;86.52;101103.92;1794993;78;21007;-69
2021/12/17 15:38:09;;;;;;;11.93;4.08;;;;;;;2.05;86.76;101103.47;1803738;77;21024;-69
2021/12/17 15:40:38;;;;;;;;;;;;;;;2.01;86.43;101107.28;1807812;77;22364;-69
2021/12/17 15:43:05;;;;;;;9.18;3.22;;;;;;;1.99;86.49;101109.00;1807575;77;20551;-69
2021/12/17 15:45:39;;;;;;;10.75;3.92;;;;;;;1.97;86.53;101105.53;1796903;78;21634;-68
2021/12/17 15:48:08;;;;;;;13.72;3.95;;;;;;;1.93;86.68;101108.94;1799247;78;21051;-68
2021/12/17 15:50:38;;;;;;;8.98;4.12;;;;;;;1.89;86.55;101101.16;1793431;78;21004;-68
2021/12/17 15:53:05;;;;;;;8.18;3.45;;;;;;;1.87;86.89;101101.13;1792219;78;21107;-69
2021/12/17 15:55:32;;;;;;;8.75;3.95;;;;;;;1.85;86.70;101101.55;1759183;78;20966;-69
2021/12/17 15:58:01;;;;;;;9.08;3.80;;;;;;;1.84;86.87;101087.36;1786926;78;21027;-68
2021/12/17 16:00:35;;;;;;;12.60;4.30;;;;;;;1.80;87.17;101096.77;1789658;77;21120;-68
2021/12/17 16:03:06;;;;;;;11.53;3.67;;;;;;;1.79;87.04;101102.75;1789491;77;21008;-68
2021/12/17 16:05:55;;;;;;;11.68;4.45;;;;;;;1.78;87.29;101107.05;1790496;77;21070;-68
2021/12/17 16:08:22;;;;;;;10.50;3.92;;;;;;;1.76;87.37;101107.87;1674909;83;21611;-69
2021/12/17 16:21:39;;;;;;;9.53;4.53;;;;;;;1.68;87.74;101112.97;1678298;83;21776;-69
2021/12/17 16:24:07;;;;;;;;;;;;;;;1.63;88.01;101124.05;1680090;84;21411;-68
2021/12/17 16:26:34;;;;;;;7.78;3.80;;;;;;;1.61;87.90;101125.74;1712558;82;21079;-69
2021/12/17 16:29:01;;;;;;;11.53;4.47;;;;;;;1.58;87.54;101127.00;1708155;82;21152;-68
2021/12/17 16:31:29;;;;;;;10.72;4.25;;;;;;;1.54;87.57;101138.55;1680315;83;21865;-68
2021/12/17 16:34:02;;;;;;;11.40;4.70;;;;;;;1.51;87.89;101138.51;1701054;83;21873;-69
2021/12/17 16:36:32;;;;;;;11.70;4.67;;;;;;;1.50;87.63;101146.20;1698966;82;21130;-69
2021/12/17 16:38:59;;;;;;;11.97;4.20;;;;;;;1.49;88.46;101141.91;1705051;83;21009;-69
2021/12/17 16:41:26;;;;;;;10.20;4.62;;;;;;;1.49;88.25;101141.48;1677521;83;21096;-69
2021/12/17 16:44:00;;;;;;;10.43;4.08;;;;;;;1.48;88.06;101139.73;1673121;83;21100;-68
2021/12/17 16:48:51;;;;;;;8.95;4.17;;;;;;;1.44;87.95;101136.69;1703585;82;21189;-69
2021/12/17 16:51:18;;;;;;;9.80;4.47;;;;;;;1.43;88.09;101134.97;1702618;82;21013;-69
2021/12/17 16:54:11;;;;;;;11.63;3.92;;;;;;;1.44;87.75;101134.11;1847371;75;23016;-67
2021/12/17 16:56:42;;;;;;;6.17;3.35;;;;;;;1.36;88.00;101140.88;1829071;76;21039;-68
2021/12/17 16:59:09;;;;;;;11.83;4.17;;;;;;;1.33;87.91;101135.69;1820435;76;21063;-68
2021/12/17 17:01:39;;;;;;;12.07;3.75;;;;;;;1.32;88.12;101151.98;1800796;78;21104;-67
2021/12/17 17:04:08;;;;;;;8.78;3.08;;;;;;;1.30;88.01;101154.52;1828556;76;20996;-68
2021/12/17 17:06:39;;;;;;;9.93;3.30;;;;;;;1.30;88.16;101158.81;1820067;76;21012;-68
2021/12/17 17:09:08;;;;;;;13.98;3.75;;;;;;;1.34;88.30;101160.56;1828859;76;21062;-68
2021/12/17 17:11:39;;;;;;;9.38;3.35;;;;;;;1.34;88.19;101182.05;1829200;76;21085;-68
2021/12/17 17:14:07;;;;;;;8.35;3.85;;;;;;;1.33;88.23;101176.86;1819633;76;21100;-67
2021/12/17 17:16:36;;;;;;;8.68;3.33;;;;;;;1.33;88.23;101174.29;1826329;76;21573;-67
2021/12/17 17:19:04;;;;;;;10.28;3.83;;;;;;;1.33;88.54;101182.01;1824522;76;20993;-68
2021/12/17 17:21:33;;;;;;;8.40;3.20;;;;;;;1.35;88.92;101177.76;1822258;76;21025;-68
2021/12/17 17:24:02;;;;;;;8.78;3.10;;;;;;;1.36;88.51;101179.48;1820444;76;21061;-68
2021/12/17 17:26:31;;;;;;;10.70;3.98;;;;;;;1.34;88.63;101180.76;1823443;76;20989;-68
2021/12/17 17:29:38;;;;;;;11.70;3.95;;;;;;;1.35;88.80;101188.05;1739232;80;21094;-68
2021/12/17 17:32:06;;;;;;;8.45;3.33;;;;;;;1.34;88.65;101187.59;1703262;81;21394;-68
2021/12/17 17:34:34;;;;;;;11.70;4.60;;;;;;;1.32;88.64;101195.30;1702719;83;21621;-68
2021/12/17 17:37:01;;;;;;;11.95;4.20;;;;;;;1.33;88.76;101184.58;1705730;83;21249;-68
2021/12/17 17:39:28;;;;;;;9.63;4.35;;;;;;;1.31;89.16;101190.13;1702356;83;20979;-68
2021/12/17 17:41:54;;;;;;;10.80;4.23;;;;;;;1.29;88.95;101196.55;1703084;81;21675;-68
2021/12/17 17:44:21;;;;;;;10.82;4.10;;;;;;;1.28;88.84;101196.52;1703649;83;20987;-69
2021/12/17 17:46:49;;;;;;;15.53;4.22;;;;;;;1.27;88.72;101196.08;1703055;81;21106;-69
2021/12/17 17:49:17;;;;;;;10.65;4.75;;;;;;;1.24;88.68;101204.62;1706961;81;21130;-68
2021/12/17 17:51:45;;;;;;;14.10;4.40;;;;;;;1.24;88.82;101205.05;1704431;83;22300;-69
2021/12/17 17:54:14;;;;;;;14.73;4.97;;;;;;;1.21;88.77;101202.44;1706892;83;21656;-69
2021/12/17 17:56:40;;;;;;;12.95;4.40;;;;;;;1.22;89.35;101205.44;1703749;83;21050;-67
2021/12/17 17:59:09;;;;;;;12.53;4.67;;;;;;;1.23;89.48;101211.02;1701334;83;21118;-68
2021/12/17 18:01:36;;;;;;;16.50;5.08;;;;;;;1.22;88.97;101218.30;1703413;83;21102;-69
2021/12/17 18:04:05;;;;;;;16.37;5.70;;;;;;;1.19;88.87;101225.55;1708635;83;21035;-69
2021/12/17 18:06:32;;;;;;;12.13;5.05;;;;;;;1.19;89.61;101237.56;1705505;81;21056;-69
2021/12/17 18:08:59;;;;;;;9.43;5.17;;;;;;;1.20;89.13;101231.55;1696674;83;21023;-69
2021/12/17 18:11:26;;;;;;;16.77;7.03;;;;;;;1.18;89.15;101222.97;1693431;83;21006;-68
2021/12/17 18:13:53;;;;;;;11.47;5.17;;;;;;;1.18;89.15;101233.27;1694308;83;21227;-68
2021/12/17 18:16:24;;;;;;;9.80;4.67;;;;;;;1.16;89.02;101247.80;1695512;83;21976;-69
2021/12/17 18:18:48;;;;;;;10.82;4.92;;;;;;;1.15;89.04;101248.62;1694611;83;21037;-69
2021/12/17 18:21:14;;;;;;;9.83;4.60;;;;;;;1.12;89.05;101249.44;1675105;83;21121;-69
2021/12/17 18:23:41;;;;;;;11.00;5.22;;;;;;;1.11;89.01;101258.88;1695727;83;21066;-69
2021/12/17 18:26:08;;;;;;;12.67;4.70;;;;;;;1.08;89.01;101251.11;1694079;83;21062;-68
2021/12/17 18:28:34;;;;;;;16.50;4.60;;;;;;;1.06;89.03;101247.64;1663505;84;21815;-68
2021/12/17 18:31:01;;;;;;;9.15;4.33;;;;;;;1.04;89.02;101241.62;1673634;83;21480;-68
2021/12/17 18:33:29;;;;;;;10.65;4.25;;;;;;;1.04;89.14;101241.62;1688201;83;20978;-69
2021/12/17 18:35:56;;;;;;;12.53;4.72;;;;;;;1.03;89.14;101239.88;1659905;84;21264;-69
2021/12/17 18:38:23;;;;;;;11.15;4.22;;;;;;;1.02;88.99;101238.16;1684146;83;21157;-70
2021/12/17 18:40:55;;;;;;;11.00;4.55;;;;;;;0.99;88.94;101243.25;1694091;83;21132;-70
2021/12/17 18:46:05;;;;;;;12.85;4.67;;;;;;;0.96;88.96;101244.49;1677462;84;21132;-70
2021/12/17 18:48:31;;;;;;;10.93;4.37;;;;;;;0.92;89.09;101236.27;1694833;83;21018;-69
2021/12/17 18:50:59;;;;;;;13.93;5.10;;;;;;;0.91;89.03;101231.97;1681857;84;21004;-69
2021/12/17 18:53:29;;;;;;;13.70;5.10;;;;;;;0.87;89.09;101228.92;1682671;84;20997;-69
2021/12/17 18:55:58;;;;;;;15.60;4.97;;;;;;;0.86;89.06;101228.45;1681051;84;21061;-69
2021/12/17 18:58:26;;;;;;;12.85;4.83;;;;;;;0.85;89.19;101226.73;1678644;84;21841;-69
2021/12/17 19:00:54;;;;;;;10.03;3.62;;;;;;;0.82;89.21;101230.55;1680038;84;21590;-70
2021/12/17 19:03:23;;;;;;;9.63;4.40;;;;;;;0.81;89.30;101232.65;1679294;84;21176;-70
2021/12/17 19:05:57;;;;;;;14.20;4.67;;;;;;;0.81;89.24;101232.65;1681006;84;20997;-70
2021/12/17 19:08:27;;;;;;;10.85;4.47;;;;;;;0.80;89.37;101236.07;1654334;84;21064;-70
2021/12/17 19:11:17;;;;;;;15.55;4.92;;;;;;;0.78;89.34;101232.60;1703979;81;21062;-70
2021/12/17 19:13:46;;;;;;;11.65;4.97;;;;;;;0.79;89.42;101231.78;1696855;83;21048;-70
2021/12/17 19:16:15;;;;;;;13.68;4.95;;;;;;;0.78;89.39;101227.46;1641328;84;21468;-70
2021/12/17 19:19:03;;;;;;;11.70;4.55;;;;;;;0.77;89.34;101231.74;1703464;82;21014;-70
2021/12/17 19:21:30;;;;;;;12.10;4.35;;;;;;;0.76;89.38;101249.73;1708068;82;21468;-69
2021/12/17 19:24:01;;;;;;;11.22;5.17;;;;;;;0.78;89.52;101248.03;1704274;82;21698;-70
2021/12/17 19:26:31;;;;;;;9.45;4.58;;;;;;;0.77;89.57;101253.59;1683836;82;21607;-70
2021/12/17 19:28:59;;;;;;;10.70;3.87;;;;;;;0.77;89.66;101256.59;1705328;82;22235;-70
2021/12/17 19:31:28;;;;;;;9.10;3.80;;;;;;;0.73;89.47;101252.22;1698385;82;21029;-71
2021/12/17 19:33:58;;;;;;;11.30;3.98;;;;;;;0.72;89.63;101264.22;1711378;82;21054;-70
2021/12/17 19:36:29;;;;;;;10.25;2.92;;;;;;;0.70;89.55;101262.45;1717945;81;21066;-71
2021/12/17 19:38:56;;;;;;;13.05;4.30;;;;;;;0.67;89.60;101258.13;1718381;83;21028;-70
2021/12/17 19:41:25;;;;;;;12.28;3.77;;;;;;;0.66;89.64;101264.11;1710037;83;22246;-70
2021/12/17 19:43:52;;;;;;;11.78;3.85;;;;;;;0.65;89.84;101268.39;1706208;83;21159;-70
2021/12/17 19:46:23;;;;;;;12.25;4.17;;;;;;;0.64;89.96;101273.10;1699864;83;21083;-70
2021/12/17 19:51:40;;;;;;;9.90;4.12;;;;;;;0.64;90.11;101278.24;1705279;82;21130;-70
2021/12/17 19:54:09;;;;;;;11.45;3.77;;;;;;;0.68;90.34;101275.30;1707591;82;21088;-70
2021/12/17 19:56:38;;;;;;;13.53;6.15;;;;;;;0.71;90.41;101273.20;1713056;81;21682;-70
2021/12/17 19:59:09;;;;;;;8.58;3.80;;;;;;;0.72;90.28;101260.78;1706512;83;21004;-70
2021/12/17 20:01:37;;;;;;;8.98;3.95;;;;;;;0.72;90.22;101259.50;1711913;82;21016;-70
2021/12/17 20:04:08;;;;;;;9.78;3.90;;;;;;;0.69;90.01;101258.16;1711406;83;22073;-70
2021/12/17 20:06:37;;;;;;;12.82;4.00;;;;;;;0.65;90.00;101251.69;1713269;82;21145;-70
2021/12/17 20:09:04;;;;;;;7.15;3.02;;;;;;;0.62;89.86;101251.63;1684956;84;21023;-69
2021/12/17 20:11:33;;;;;;;9.60;3.42;;;;;;;0.62;90.21;101255.48;1650270;84;21573;-70
2021/12/17 20:14:00;;;;;;;12.25;3.00;;;;;;;0.66;90.42;101263.69;1671862;84;21124;-70
2021/12/17 20:16:26;;;;;;;8.90;3.60;;;;;;;0.68;90.38;101264.16;1677355;84;21566;-70
2021/12/17 20:18:55;;;;;;;9.98;3.35;;;;;;;0.68;90.21;101261.58;1673789;83;21751;-70
2021/12/17 20:21:22;;;;;;;8.95;3.30;;;;;;;0.69;90.30;101267.16;1686045;83;21336;-69
2021/12/17 20:23:49;;;;;;;13.38;3.52;;;;;;;0.72;90.36;101269.78;1666085;85;21089;-71
2021/12/17 20:26:17;;;;;;;7.55;2.90;;;;;;;0.73;90.44;101275.36;1672655;84;21090;-70
2021/12/17 20:28:49;;;;;;;9.45;3.15;;;;;;;0.74;90.30;101275.83;1655057;85;21753;-71
2021/12/17 20:31:14;;;;;;;10.60;2.90;;;;;;;0.73;90.32;101273.68;1684990;84;21797;-71
2021/12/17 20:33:41;;;;;;;9.38;2.77;;;;;;;0.72;90.31;101271.07;1678294;83;21078;-71
2021/12/17 20:36:10;;;;;;;10.48;3.25;;;;;;;0.71;90.40;101266.77;1679685;84;22273;-71
2021/12/17 20:38:37;;;;;;;18.75;2.72;;;;;;;0.72;90.45;101273.64;1676490;83;20998;-71
2021/12/17 20:41:07;;;;;;;55.60;5.47;;;;;;;0.70;90.25;101279.16;1679334;84;21689;-71
2021/12/17 20:43:41;;;;;;;12.20;3.33;;;;;;;0.67;90.22;101294.11;1660640;85;21673;-70
2021/12/17 20:46:07;;;;;;;10.95;3.42;;;;;;;0.68;90.30;101302.72;1665466;84;21619;-70
2021/12/17 20:48:34;;;;;;;8.98;3.08;;;;;;;0.69;90.34;101309.58;1682800;84;21673;-70
2021/12/17 20:51:04;;;;;;;7.25;3.12;;;;;;;0.71;90.47;101300.20;1688449;84;21056;-70
2021/12/17 20:53:32;;;;;;;8.10;3.00;;;;;;;0.71;90.39;101301.06;1679367;84;21022;-71
2021/12/17 20:56:00;;;;;;;11.20;3.20;;;;;;;0.71;90.35;101298.91;1677053;84;22531;-70
2021/12/17 20:58:27;;;;;;;10.43;3.22;;;;;;;0.66;90.30;101293.25;1673417;84;21116;-71
2021/12/17 21:00:54;;;;;;;;;;;;;;;0.65;90.45;101299.24;1683897;84;21019;-71
2021/12/17 21:03:21;;;;;;;9.60;3.35;;;;;;;0.63;90.40;101284.63;1675689;85;20518;-71
2021/12/17 21:05:48;;;;;;;11.10;2.83;;;;;;;0.59;90.47;101282.42;1643398;85;21063;-70
2021/12/17 21:08:16;;;;;;;7.53;2.65;;;;;;;0.58;90.37;101287.09;1653259;85;21187;-71
2021/12/17 21:10:46;;;;;;;6.08;2.95;;;;;;;0.53;90.21;101281.00;1645469;83;20996;-70
2021/12/17 21:13:13;;;;;;;9.03;3.58;;;;;;;0.50;90.23;101277.52;1690174;84;21179;-71
2021/12/17 21:15:48;;;;;;;10.20;3.30;;;;;;;0.44;90.16;101276.98;1717945;82;21046;-70
2021/12/17 21:18:17;;;;;;;9.75;2.77;;;;;;;0.41;90.24;101278.21;1695139;83;21677;-71
2021/12/17 21:20:48;;;;;;;12.07;3.67;;;;;;;0.39;90.25;101274.73;1715944;82;21155;-71
2021/12/17 21:23:18;;;;;;;10.13;4.47;;;;;;;0.36;90.21;101260.55;1722664;82;21016;-71
2021/12/17 21:25:48;;;;;;;13.90;5.70;;;;;;;0.33;90.24;101261.78;1714719;81;21382;-70
2021/12/17 21:28:17;;;;;;;14.60;5.97;;;;;;;0.30;90.27;101261.73;1713110;82;21067;-71
2021/12/17 21:30:47;;;;;;;13.48;5.08;;;;;;;0.29;90.24;101263.86;1714236;82;21099;-71
2021/12/17 21:33:16;;;;;;;14.15;3.90;;;;;;;0.24;90.15;101266.75;1715611;82;21063;-71
2021/12/17 21:35:43;;;;;;;13.88;4.87;;;;;;;0.18;90.05;101279.92;1720140;82;20949;-70
2021/12/17 21:38:10;;;;;;;11.73;5.70;;;;;;;0.13;90.05;101282.80;1720455;82;20929;-71
2021/12/17 21:40:39;;;;;;;15.13;8.45;;;;;;;0.08;90.04;101281.84;1719391;82;22447;-70
2021/12/17 21:43:08;;;;;;;21.45;7.85;;;;;;;0.03;90.05;101273.20;1712113;82;21570;-71
2021/12/17 21:45:36;;;;;;;17.50;7.08;;;;;;;0.02;90.16;101279.58;1719624;82;21065;-71
2021/12/17 21:48:03;;;;;;;17.80;6.87;;;;;;;-0.01;90.18;101277.38;1719971;82;21086;-70
2021/12/17 21:50:31;;;;;;;15.60;5.95;;;;;;;-0.03;90.17;101278.19;1718124;82;28584;-71
2021/12/17 21:52:59;;;;;;;15.50;6.42;;;;;;;-0.05;90.21;101279.88;1697574;82;21071;-71
2021/12/17 21:55:25;;;;;;;16.85;7.03;;;;;;;-0.08;90.10;101278.53;1711097;82;21119;-71
2021/12/17 21:57:52;;;;;;;15.15;8.75;;;;;;;-0.11;90.11;101275.88;1719696;82;21706;-71
2021/12/17 22:00:24;;;;;;;19.50;8.65;;;;;;;-0.14;90.11;101280.55;1720272;82;21041;-71
2021/12/17 22:02:51;;;;;;;13.75;5.47;;;;;;;-0.17;89.99;101279.59;1709700;82;20965;-70
2021/12/17 22:05:22;;;;;;;16.02;6.05;;;;;;;-0.25;90.05;101282.89;1718226;82;22942;-71
2021/12/17 22:07:51;;;;;;;12.73;5.15;;;;;;;-0.29;90.04;101281.06;1720551;82;21090;-71
2021/12/17 22:10:21;;;;;;;11.73;6.20;;;;;;;-0.36;89.91;101284.34;1717138;82;20993;-71
2021/12/17 22:12:49;;;;;;;18.07;5.40;;;;;;;-0.41;90.01;101283.38;1717518;81;21068;-71
2021/12/17 22:15:18;;;;;;;20.32;5.85;;;;;;;-0.46;90.01;101275.98;1714636;82;21107;-71
2021/12/17 22:17:44;;;;;;;15.05;5.45;;;;;;;-0.49;90.08;101269.50;1716814;83;21497;-71
2021/12/17 22:20:31;;;;;;;13.93;5.85;;;;;;;-0.51;90.13;101264.32;1725243;81;20996;-71
2021/12/17 22:22:53;;;;;;;12.63;6.42;;;;;;;-0.53;90.11;101260.02;1719469;81;21180;-71
2021/12/17 22:25:20;;;;;;;19.80;9.73;;;;;;;-0.58;90.03;101265.45;1715620;82;21490;-71
2021/12/17 22:27:47;;;;;;;19.05;8.05;;;;;;;-0.61;90.15;101256.41;1721585;82;21047;-71
2021/12/17 22:30:16;;;;;;;15.15;6.12;;;;;;;-0.62;90.23;101252.09;1718952;81;21597;-70
2021/12/17 22:32:43;;;;;;;12.95;6.17;;;;;;;-0.62;90.32;101259.78;1720715;82;21610;-71
2021/12/17 22:35:10;;;;;;;12.13;6.63;;;;;;;-0.68;90.03;101253.67;1718324;81;21047;-71
2021/12/17 22:37:37;;;;;;;;;;;;;;;-0.75;90.11;101249.25;1724827;82;20980;-71
2021/12/17 22:40:08;;;;;;;14.28;6.45;;;;;;;-0.78;90.14;101253.45;1717208;82;21113;-71
2021/12/17 22:42:35;;;;;;;14.40;6.30;;;;;;;-0.80;90.23;101253.83;1720942;81;21167;-70
2021/12/17 22:45:02;;;;;;;17.17;6.35;;;;;;;-0.84;90.35;101256.74;1713410;82;21752;-71
2021/12/17 22:47:29;;;;;;;27.30;17.40;;;;;;;-0.84;90.50;101255.45;1718752;82;21130;-71
2021/12/17 22:49:55;;;;;;;17.70;7.28;;;;;;;-0.81;90.63;101255.92;1720041;82;21102;-71
2021/12/17 22:52:22;;;;;;;19.87;7.12;;;;;;;-0.79;90.68;101262.82;1718907;81;21088;-71
2021/12/17 22:54:50;;;;;;;17.98;7.00;;;;;;;-0.76;90.74;101260.33;1712945;82;20994;-71
2021/12/17 22:57:16;;;;;;;12.23;6.70;;;;;;;-0.75;90.72;101256.95;1722786;82;21554;-71
2021/12/17 22:59:43;;;;;;;22.47;12.17;;;;;;;-0.79;90.54;101267.95;1715245;82;21241;-71
2021/12/17 23:02:11;;;;;;;25.32;10.75;;;;;;;-0.80;90.55;101263.66;1683827;83;21595;-71
2021/12/17 23:04:46;;;;;;;27.15;11.93;;;;;;;-0.75;90.71;101262.08;1692373;82;21124;-71
2021/12/17 23:07:09;;;;;;;32.23;11.55;;;;;;;-0.71;90.87;101256.17;1717837;83;20910;-71
2021/12/17 23:09:41;;;;;;;33.50;9.88;;;;;;;-0.66;90.86;101252.87;1721671;81;21113;-71
2021/12/17 23:12:13;;;;;;;24.98;8.38;;;;;;;-0.59;90.89;101244.45;1723404;81;21627;-71
2021/12/17 23:14:47;;;;;;;16.82;6.70;;;;;;;-0.54;90.91;101242.87;1716946;82;21559;-71
2021/12/17 23:17:18;;;;;;;17.42;7.10;;;;;;;-0.47;90.99;101248.60;1720755;82;21024;-72
2021/12/17 23:19:47;;;;;;;33.58;7.80;;;;;;;-0.43;90.87;101245.25;1715170;82;21512;-71
2021/12/17 23:22:16;;;;;;;13.30;8.30;;;;;;;-0.42;90.80;101237.13;1724206;82;21103;-71
2021/12/17 23:24:44;;;;;;;21.97;8.58;;;;;;;-0.38;90.87;101234.67;1720081;82;21773;-71
2021/12/17 23:27:10;;;;;;;35.05;8.43;;;;;;;-0.29;91.11;101236.15;1716483;82;21068;-72
2021/12/17 23:29:37;;;;;;;32.27;7.13;;;;;;;-0.23;91.07;101237.55;1718388;82;21084;-72
2021/12/17 23:32:06;;;;;;;8.85;6.05;;;;;;;-0.14;91.13;101230.88;1718607;82;21046;-72
2021/12/17 23:37:03;;;;;;;20.25;6.55;;;;;;;-0.09;90.99;101238.27;1689364;84;21518;-71
2021/12/17 23:39:31;;;;;;;26.73;8.55;;;;;;;-0.04;91.07;101245.23;1723656;82;21052;-72
2021/12/17 23:41:58;;;;;;;29.98;8.88;;;;;;;0.00;90.98;101247.46;1723168;82;21732;-71
2021/12/17 23:44:26;;;;;;;25.43;10.23;;;;;;;0.06;91.16;101237.73;1692708;82;21142;-71
2021/12/17 23:46:53;;;;;;;41.90;11.22;;;;;;;0.12;91.35;101233.56;1720076;81;21500;-72
2021/12/17 23:49:20;;;;;;;17.17;9.25;;;;;;;0.20;91.43;101233.73;1715113;82;21090;-72
2021/12/17 23:51:48;;;;;;;25.45;7.83;;;;;;;0.28;91.50;101229.99;1707154;82;21111;-71
2021/12/17 23:54:16;;;;;;;33.65;11.40;;;;;;;0.32;91.40;101220.23;1715074;82;21024;-71
2021/12/17 23:56:43;;;;;;;37.45;14.47;;;;;;;0.36;91.53;101217.73;1721313;82;21093;-71
2021/12/17 23:59:10;;;;;;;24.70;12.98;;;;;;;0.44;91.59;101214.88;1700559;82;21137;-72
